sensor_id;sensor_type;location;lat;lon;timestamp;pressure;altitude;pressure_sealevel;temperature;humidity
65376;BME280;51976;47.332;9.404;2023-06-26T00:01:14;92914.50;;;18.67;57.62
65376;BME280;51976;47.332;9.404;2023-06-26T00:03:39;92924.31;;;18.59;57.61
65376;BME280;51976;47.332;9.404;2023-06-26T00:06:05;92920.00;;;18.58;57.67
65376;BME280;51976;47.332;9.404;2023-06-26T00:08:30;92923.09;;;18.48;57.66
65376;BME280;51976;47.332;9.404;2023-06-26T00:10:56;92920.31;;;18.18;57.98
65376;BME280;51976;47.332;9.404;2023-06-26T00:13:22;92921.25;;;18.31;57.47
65376;BME280;51976;47.332;9.404;2023-06-26T00:15:48;92909.94;;;18.41;56.82
65376;BME280;51976;47.332;9.404;2023-06-26T00:18:13;92913.09;;;18.52;56.63
65376;BME280;51976;47.332;9.404;2023-06-26T00:20:39;92920.03;;;18.49;56.54
65376;BME280;51976;47.332;9.404;2023-06-26T00:23:04;92915.03;;;18.51;56.52
65376;BME280;51976;47.332;9.404;2023-06-26T00:25:33;92920.81;;;18.50;57.00
65376;BME280;51976;47.332;9.404;2023-06-26T00:27:58;92924.66;;;18.57;56.63
65376;BME280;51976;47.332;9.404;2023-06-26T00:30:24;92922.91;;;18.53;56.81
65376;BME280;51976;47.332;9.404;2023-06-26T00:32:49;92920.16;;;18.53;56.79
65376;BME280;51976;47.332;9.404;2023-06-26T00:35:15;92926.06;;;18.64;56.42
65376;BME280;51976;47.332;9.404;2023-06-26T00:37:41;92921.56;;;18.68;56.44
65376;BME280;51976;47.332;9.404;2023-06-26T00:40:06;92923.63;;;18.71;56.33
65376;BME280;51976;47.332;9.404;2023-06-26T00:42:32;92926.66;;;18.78;56.39
65376;BME280;51976;47.332;9.404;2023-06-26T00:44:58;92921.19;;;18.78;56.47
65376;BME280;51976;47.332;9.404;2023-06-26T00:47:23;92928.31;;;18.62;57.11
65376;BME280;51976;47.332;9.404;2023-06-26T00:49:49;92926.72;;;18.60;57.17
65376;BME280;51976;47.332;9.404;2023-06-26T00:52:15;92922.75;;;18.49;57.61
65376;BME280;51976;47.332;9.404;2023-06-26T00:54:42;92915.22;;;18.46;57.71
65376;BME280;51976;47.332;9.404;2023-06-26T00:57:07;92926.31;;;18.41;57.82
65376;BME280;51976;47.332;9.404;2023-06-26T00:59:34;92928.28;;;18.70;57.21
65376;BME280;51976;47.332;9.404;2023-06-26T01:01:59;92930.22;;;18.70;56.87
65376;BME280;51976;47.332;9.404;2023-06-26T01:04:25;92921.72;;;18.63;56.83
65376;BME280;51976;47.332;9.404;2023-06-26T01:06:53;92930.94;;;18.49;57.04
65376;BME280;51976;47.332;9.404;2023-06-26T01:09:19;92922.56;;;18.54;57.03
65376;BME280;51976;47.332;9.404;2023-06-26T01:11:45;92926.78;;;18.43;57.56
65376;BME280;51976;47.332;9.404;2023-06-26T01:14:11;92924.31;;;18.59;57.24
65376;BME280;51976;47.332;9.404;2023-06-26T01:16:38;92923.91;;;18.40;57.19
65376;BME280;51976;47.332;9.404;2023-06-26T01:19:11;92923.28;;;18.34;57.39
65376;BME280;51976;47.332;9.404;2023-06-26T01:21:42;92925.66;;;18.06;58.50
65376;BME280;51976;47.332;9.404;2023-06-26T01:24:15;92923.28;;;18.34;57.75
65376;BME280;51976;47.332;9.404;2023-06-26T01:26:46;92922.28;;;18.47;57.91
65376;BME280;51976;47.332;9.404;2023-06-26T01:29:15;92925.16;;;18.59;57.41
65376;BME280;51976;47.332;9.404;2023-06-26T01:31:42;92926.50;;;18.36;57.50
65376;BME280;51976;47.332;9.404;2023-06-26T01:34:09;92919.31;;;18.32;58.19
65376;BME280;51976;47.332;9.404;2023-06-26T01:36:34;92917.19;;;18.37;58.07
65376;BME280;51976;47.332;9.404;2023-06-26T01:39:00;92918.75;;;18.47;58.06
65376;BME280;51976;47.332;9.404;2023-06-26T01:41:26;92919.81;;;18.63;57.59
65376;BME280;51976;47.332;9.404;2023-06-26T01:44:08;92922.69;;;18.67;57.51
65376;BME280;51976;47.332;9.404;2023-06-26T01:46:44;92917.69;;;18.69;57.40
65376;BME280;51976;47.332;9.404;2023-06-26T01:49:43;92922.44;;;18.80;57.41
65376;BME280;51976;47.332;9.404;2023-06-26T01:52:30;92922.50;;;18.72;57.54
65376;BME280;51976;47.332;9.404;2023-06-26T01:55:12;92924.72;;;18.40;58.10
65376;BME280;51976;47.332;9.404;2023-06-26T01:57:41;92922.59;;;18.46;58.32
65376;BME280;51976;47.332;9.404;2023-06-26T02:00:08;92925.41;;;18.67;57.85
65376;BME280;51976;47.332;9.404;2023-06-26T02:02:36;92916.38;;;18.75;57.81
65376;BME280;51976;47.332;9.404;2023-06-26T02:05:02;92923.84;;;18.57;58.17
65376;BME280;51976;47.332;9.404;2023-06-26T02:07:27;92920.47;;;18.60;58.51
65376;BME280;51976;47.332;9.404;2023-06-26T02:09:53;92927.97;;;18.72;58.43
65376;BME280;51976;47.332;9.404;2023-06-26T02:12:18;92929.56;;;18.73;58.36
65376;BME280;51976;47.332;9.404;2023-06-26T02:14:44;92938.38;;;18.78;57.89
65376;BME280;51976;47.332;9.404;2023-06-26T02:17:09;92938.66;;;18.85;57.79
65376;BME280;51976;47.332;9.404;2023-06-26T02:19:34;92938.66;;;18.85;58.07
65376;BME280;51976;47.332;9.404;2023-06-26T02:22:00;92937.84;;;18.85;58.11
65376;BME280;51976;47.332;9.404;2023-06-26T02:24:25;92934.56;;;18.91;57.75
65376;BME280;51976;47.332;9.404;2023-06-26T02:26:55;92936.97;;;18.93;58.01
65376;BME280;51976;47.332;9.404;2023-06-26T02:29:20;92930.91;;;18.87;58.20
65376;BME280;51976;47.332;9.404;2023-06-26T02:31:45;92936.28;;;18.75;58.58
65376;BME280;51976;47.332;9.404;2023-06-26T02:34:11;92942.25;;;18.69;59.22
65376;BME280;51976;47.332;9.404;2023-06-26T02:36:36;92934.59;;;18.62;59.43
65376;BME280;51976;47.332;9.404;2023-06-26T02:39:02;92941.78;;;18.67;59.26
65376;BME280;51976;47.332;9.404;2023-06-26T02:41:27;92938.56;;;18.73;59.23
65376;BME280;51976;47.332;9.404;2023-06-26T02:43:52;92942.56;;;18.76;59.27
65376;BME280;51976;47.332;9.404;2023-06-26T02:46:18;92946.41;;;18.75;59.08
65376;BME280;51976;47.332;9.404;2023-06-26T02:48:43;92946.84;;;18.85;58.96
65376;BME280;51976;47.332;9.404;2023-06-26T02:51:08;92948.16;;;18.79;59.03
65376;BME280;51976;47.332;9.404;2023-06-26T02:53:34;92950.25;;;18.82;58.97
65376;BME280;51976;47.332;9.404;2023-06-26T02:55:59;92949.91;;;18.84;58.73
65376;BME280;51976;47.332;9.404;2023-06-26T02:58:24;92946.53;;;18.87;58.91
65376;BME280;51976;47.332;9.404;2023-06-26T03:00:50;92944.13;;;18.85;59.01
65376;BME280;51976;47.332;9.404;2023-06-26T03:03:16;92944.63;;;18.79;59.48
65376;BME280;51976;47.332;9.404;2023-06-26T03:05:41;92951.91;;;18.66;60.19
65376;BME280;51976;47.332;9.404;2023-06-26T03:08:07;92948.44;;;18.48;60.56
65376;BME280;51976;47.332;9.404;2023-06-26T03:10:32;92946.84;;;18.47;60.54
65376;BME280;51976;47.332;9.404;2023-06-26T03:12:57;92951.31;;;18.52;60.73
65376;BME280;51976;47.332;9.404;2023-06-26T03:15:23;92951.25;;;18.69;60.39
65376;BME280;51976;47.332;9.404;2023-06-26T03:17:48;92951.91;;;18.66;60.36
65376;BME280;51976;47.332;9.404;2023-06-26T03:20:13;92950.16;;;18.62;60.71
65376;BME280;51976;47.332;9.404;2023-06-26T03:22:40;92951.63;;;18.59;60.68
65376;BME280;51976;47.332;9.404;2023-06-26T03:25:06;92952.44;;;18.51;61.22
65376;BME280;51976;47.332;9.404;2023-06-26T03:27:31;92960.00;;;18.54;61.25
65376;BME280;51976;47.332;9.404;2023-06-26T03:29:56;92958.53;;;18.56;61.23
65376;BME280;51976;47.332;9.404;2023-06-26T03:32:22;92960.78;;;18.54;61.04
65376;BME280;51976;47.332;9.404;2023-06-26T03:34:47;92963.38;;;18.59;60.95
65376;BME280;51976;47.332;9.404;2023-06-26T03:37:13;92960.94;;;18.58;60.71
65376;BME280;51976;47.332;9.404;2023-06-26T03:39:38;92957.13;;;18.50;61.25
65376;BME280;51976;47.332;9.404;2023-06-26T03:42:04;92951.84;;;18.45;61.39
65376;BME280;51976;47.332;9.404;2023-06-26T03:44:29;92963.38;;;18.59;60.85
65376;BME280;51976;47.332;9.404;2023-06-26T03:46:55;92962.41;;;18.55;60.96
65376;BME280;51976;47.332;9.404;2023-06-26T03:49:20;92966.09;;;18.51;61.08
65376;BME280;51976;47.332;9.404;2023-06-26T03:51:45;92965.16;;;18.47;61.34
65376;BME280;51976;47.332;9.404;2023-06-26T03:54:11;92963.69;;;18.49;61.14
65376;BME280;51976;47.332;9.404;2023-06-26T03:56:36;92967.75;;;18.35;61.41
65376;BME280;51976;47.332;9.404;2023-06-26T03:59:02;92965.66;;;18.40;61.23
65376;BME280;51976;47.332;9.404;2023-06-26T04:01:28;92963.22;;;18.47;61.17
65376;BME280;51976;47.332;9.404;2023-06-26T04:03:53;92963.06;;;18.44;61.45
65376;BME280;51976;47.332;9.404;2023-06-26T04:06:19;92960.69;;;18.34;62.01
65376;BME280;51976;47.332;9.404;2023-06-26T04:08:44;92962.75;;;18.45;61.89
65376;BME280;51976;47.332;9.404;2023-06-26T04:11:09;92961.75;;;18.58;61.42
65376;BME280;51976;47.332;9.404;2023-06-26T04:13:35;92971.38;;;18.56;61.63
65376;BME280;51976;47.332;9.404;2023-06-26T04:16:00;92956.91;;;18.64;61.18
65376;BME280;51976;47.332;9.404;2023-06-26T04:18:26;92959.63;;;18.64;61.17
65376;BME280;51976;47.332;9.404;2023-06-26T04:21:08;92962.25;;;18.52;61.49
65376;BME280;51976;47.332;9.404;2023-06-26T04:23:34;92963.53;;;18.54;61.59
65376;BME280;51976;47.332;9.404;2023-06-26T04:26:00;92965.94;;;18.56;61.42
65376;BME280;51976;47.332;9.404;2023-06-26T04:28:26;92972.31;;;18.69;61.17
65376;BME280;51976;47.332;9.404;2023-06-26T04:30:51;92966.47;;;18.79;60.87
65376;BME280;51976;47.332;9.404;2023-06-26T04:33:16;92969.13;;;18.87;60.28
65376;BME280;51976;47.332;9.404;2023-06-26T04:35:42;92966.56;;;18.91;60.27
65376;BME280;51976;47.332;9.404;2023-06-26T04:38:10;92973.28;;;18.93;60.17
65376;BME280;51976;47.332;9.404;2023-06-26T04:40:35;92973.94;;;18.90;59.88
65376;BME280;51976;47.332;9.404;2023-06-26T04:43:00;92968.97;;;18.92;60.23
65376;BME280;51976;47.332;9.404;2023-06-26T04:45:26;92975.03;;;18.98;59.78
65376;BME280;51976;47.332;9.404;2023-06-26T04:47:51;92974.56;;;18.96;59.86
65376;BME280;51976;47.332;9.404;2023-06-26T04:50:17;92971.66;;;19.01;59.52
65376;BME280;51976;47.332;9.404;2023-06-26T04:52:44;92965.84;;;19.23;58.78
65376;BME280;51976;47.332;9.404;2023-06-26T04:55:09;92973.00;;;19.37;58.39
65376;BME280;51976;47.332;9.404;2023-06-26T04:57:34;92973.34;;;19.35;58.66
65376;BME280;51976;47.332;9.404;2023-06-26T05:00:00;92968.81;;;19.81;57.64
65376;BME280;51976;47.332;9.404;2023-06-26T05:02:25;92967.22;;;20.25;56.44
65376;BME280;51976;47.332;9.404;2023-06-26T05:04:52;92970.03;;;20.49;55.70
65376;BME280;51976;47.332;9.404;2023-06-26T05:07:17;92961.84;;;21.22;54.45
65376;BME280;51976;47.332;9.404;2023-06-26T05:09:42;92960.47;;;21.96;52.72
65376;BME280;51976;47.332;9.404;2023-06-26T05:12:08;92963.25;;;22.40;51.56
65376;BME280;51976;47.332;9.404;2023-06-26T05:14:33;92957.03;;;22.00;52.24
65376;BME280;51976;47.332;9.404;2023-06-26T05:16:59;92960.72;;;22.19;51.44
65376;BME280;51976;47.332;9.404;2023-06-26T05:19:24;92961.03;;;22.77;50.36
65376;BME280;51976;47.332;9.404;2023-06-26T05:21:50;92963.63;;;23.17;48.59
65376;BME280;51976;47.332;9.404;2023-06-26T05:24:16;92958.91;;;23.02;49.21
65376;BME280;51976;47.332;9.404;2023-06-26T05:26:42;92956.94;;;22.71;49.43
65376;BME280;51976;47.332;9.404;2023-06-26T05:29:08;92964.97;;;23.43;48.46
65376;BME280;51976;47.332;9.404;2023-06-26T05:31:35;92964.31;;;23.65;47.95
65376;BME280;51976;47.332;9.404;2023-06-26T05:34:04;92956.06;;;23.65;48.04
65376;BME280;51976;47.332;9.404;2023-06-26T05:36:31;92963.91;;;23.47;48.44
65376;BME280;51976;47.332;9.404;2023-06-26T05:38:59;92951.38;;;23.15;49.09
65376;BME280;51976;47.332;9.404;2023-06-26T05:41:24;92955.53;;;23.24;48.62
65376;BME280;51976;47.332;9.404;2023-06-26T05:43:50;92953.81;;;23.90;47.89
65376;BME280;51976;47.332;9.404;2023-06-26T05:46:15;92948.09;;;23.99;46.77
65376;BME280;51976;47.332;9.404;2023-06-26T05:48:41;92957.16;;;23.99;46.97
65376;BME280;51976;47.332;9.404;2023-06-26T05:51:07;92949.19;;;24.55;46.14
65376;BME280;51976;47.332;9.404;2023-06-26T05:53:33;92946.56;;;24.62;46.34
65376;BME280;51976;47.332;9.404;2023-06-26T05:55:58;92945.75;;;24.62;46.73
65376;BME280;51976;47.332;9.404;2023-06-26T05:58:26;92944.50;;;24.79;46.48
65376;BME280;51976;47.332;9.404;2023-06-26T06:00:52;92941.53;;;24.68;46.28
65376;BME280;51976;47.332;9.404;2023-06-26T06:03:18;92942.88;;;24.78;45.83
65376;BME280;51976;47.332;9.404;2023-06-26T06:05:43;92931.63;;;25.09;44.68
65376;BME280;51976;47.332;9.404;2023-06-26T06:08:09;92934.25;;;25.28;44.54
65376;BME280;51976;47.332;9.404;2023-06-26T06:10:35;92936.28;;;25.32;45.15
65376;BME280;51976;47.332;9.404;2023-06-26T06:13:00;92931.16;;;25.60;44.84
65376;BME280;51976;47.332;9.404;2023-06-26T06:15:25;92932.03;;;25.64;45.15
65376;BME280;51976;47.332;9.404;2023-06-26T06:17:51;92936.47;;;26.02;44.09
65376;BME280;51976;47.332;9.404;2023-06-26T06:20:18;92929.31;;;25.98;44.73
65376;BME280;51976;47.332;9.404;2023-06-26T06:22:46;92923.88;;;26.38;43.16
65376;BME280;51976;47.332;9.404;2023-06-26T06:25:13;92927.91;;;26.44;42.87
65376;BME280;51976;47.332;9.404;2023-06-26T06:27:39;92935.06;;;26.49;43.01
65376;BME280;51976;47.332;9.404;2023-06-26T06:30:05;92926.84;;;26.22;43.22
65376;BME280;51976;47.332;9.404;2023-06-26T06:32:30;92922.38;;;26.44;42.76
65376;BME280;51976;47.332;9.404;2023-06-26T06:34:56;92938.25;;;26.51;41.38
65376;BME280;51976;47.332;9.404;2023-06-26T06:37:22;92931.63;;;26.62;41.33
65376;BME280;51976;47.332;9.404;2023-06-26T06:39:47;92928.41;;;26.57;41.38
65376;BME280;51976;47.332;9.404;2023-06-26T06:42:13;92923.06;;;26.75;40.24
65376;BME280;51976;47.332;9.404;2023-06-26T06:44:39;92926.66;;;26.79;39.37
65376;BME280;51976;47.332;9.404;2023-06-26T06:47:04;92930.28;;;26.90;38.30
65376;BME280;51976;47.332;9.404;2023-06-26T06:49:30;92926.72;;;26.89;37.35
65376;BME280;51976;47.332;9.404;2023-06-26T06:51:56;92924.50;;;27.02;36.62
65376;BME280;51976;47.332;9.404;2023-06-26T06:54:25;92938.63;;;26.49;37.51
65376;BME280;51976;47.332;9.404;2023-06-26T06:56:51;92938.75;;;26.63;37.50
65376;BME280;51976;47.332;9.404;2023-06-26T06:59:16;92933.50;;;26.55;37.53
65376;BME280;51976;47.332;9.404;2023-06-26T07:01:41;92933.44;;;26.88;36.96
65376;BME280;51976;47.332;9.404;2023-06-26T07:04:07;92939.16;;;27.06;36.43
65376;BME280;51976;47.332;9.404;2023-06-26T07:06:32;92937.91;;;26.96;36.86
65376;BME280;51976;47.332;9.404;2023-06-26T07:08:58;92943.44;;;26.59;37.54
65376;BME280;51976;47.332;9.404;2023-06-26T07:11:23;92944.56;;;26.55;37.22
65376;BME280;51976;47.332;9.404;2023-06-26T07:13:49;92942.00;;;26.73;37.30
65376;BME280;51976;47.332;9.404;2023-06-26T07:16:14;92948.78;;;26.08;38.46
65376;BME280;51976;47.332;9.404;2023-06-26T07:18:40;92944.22;;;25.89;38.42
65376;BME280;51976;47.332;9.404;2023-06-26T07:21:05;92944.31;;;26.00;38.17
65376;BME280;51976;47.332;9.404;2023-06-26T07:23:31;92947.88;;;25.67;38.63
65376;BME280;51976;47.332;9.404;2023-06-26T07:25:56;92949.41;;;25.94;38.26
65376;BME280;51976;47.332;9.404;2023-06-26T07:28:22;92949.00;;;25.92;38.26
65376;BME280;51976;47.332;9.404;2023-06-26T07:30:47;92948.69;;;26.01;38.24
65376;BME280;51976;47.332;9.404;2023-06-26T07:33:13;92949.47;;;26.02;38.26
65376;BME280;51976;47.332;9.404;2023-06-26T07:35:39;92944.19;;;26.19;37.95
65376;BME280;51976;47.332;9.404;2023-06-26T07:38:04;92951.81;;;26.00;38.07
65376;BME280;51976;47.332;9.404;2023-06-26T07:40:29;92937.25;;;25.73;38.97
65376;BME280;51976;47.332;9.404;2023-06-26T07:42:55;92934.50;;;25.69;38.76
65376;BME280;51976;47.332;9.404;2023-06-26T07:45:22;92941.03;;;25.87;38.74
65376;BME280;51976;47.332;9.404;2023-06-26T07:47:48;92939.78;;;26.15;38.26
65376;BME280;51976;47.332;9.404;2023-06-26T07:50:13;92941.53;;;26.30;37.86
65376;BME280;51976;47.332;9.404;2023-06-26T07:52:44;92940.38;;;26.31;37.92
65376;BME280;51976;47.332;9.404;2023-06-26T07:55:10;92935.84;;;26.49;38.10
65376;BME280;51976;47.332;9.404;2023-06-26T07:57:36;92939.03;;;26.51;38.16
65376;BME280;51976;47.332;9.404;2023-06-26T08:00:02;92942.56;;;26.48;38.32
65376;BME280;51976;47.332;9.404;2023-06-26T08:02:27;92933.97;;;26.27;38.42
65376;BME280;51976;47.332;9.404;2023-06-26T08:04:53;92932.00;;;26.27;38.12
65376;BME280;51976;47.332;9.404;2023-06-26T08:07:18;92932.00;;;26.61;38.04
65376;BME280;51976;47.332;9.404;2023-06-26T08:09:44;92932.78;;;26.99;37.99
65376;BME280;51976;47.332;9.404;2023-06-26T08:12:10;92935.03;;;27.34;37.00
65376;BME280;51976;47.332;9.404;2023-06-26T08:14:36;92934.69;;;27.46;36.81
65376;BME280;51976;47.332;9.404;2023-06-26T08:17:01;92943.91;;;27.09;37.13
65376;BME280;51976;47.332;9.404;2023-06-26T08:19:28;92934.81;;;27.09;36.98
65376;BME280;51976;47.332;9.404;2023-06-26T08:21:53;92937.63;;;27.12;36.36
65376;BME280;51976;47.332;9.404;2023-06-26T08:24:19;92935.22;;;27.07;36.81
65376;BME280;51976;47.332;9.404;2023-06-26T08:26:46;92936.34;;;26.99;36.88
65376;BME280;51976;47.332;9.404;2023-06-26T08:29:12;92935.75;;;27.23;36.57
65376;BME280;51976;47.332;9.404;2023-06-26T08:31:38;92940.56;;;27.37;35.73
65376;BME280;51976;47.332;9.404;2023-06-26T08:34:04;92938.44;;;27.16;36.01
65376;BME280;51976;47.332;9.404;2023-06-26T08:36:30;92935.97;;;27.01;36.77
65376;BME280;51976;47.332;9.404;2023-06-26T08:38:56;92935.41;;;26.88;36.36
65376;BME280;51976;47.332;9.404;2023-06-26T08:41:22;92946.81;;;26.79;36.51
65376;BME280;51976;47.332;9.404;2023-06-26T08:43:48;92944.84;;;26.83;36.48
65376;BME280;51976;47.332;9.404;2023-06-26T08:46:16;92935.91;;;26.56;36.66
65376;BME280;51976;47.332;9.404;2023-06-26T08:48:53;92945.44;;;26.25;37.34
65376;BME280;51976;47.332;9.404;2023-06-26T08:51:23;92932.44;;;26.29;37.58
65376;BME280;51976;47.332;9.404;2023-06-26T08:53:58;92945.91;;;26.31;37.47
65376;BME280;51976;47.332;9.404;2023-06-26T08:56:27;92938.03;;;26.70;37.09
65376;BME280;51976;47.332;9.404;2023-06-26T08:58:53;92935.50;;;26.95;36.38
65376;BME280;51976;47.332;9.404;2023-06-26T09:01:19;92939.69;;;27.22;36.07
65376;BME280;51976;47.332;9.404;2023-06-26T09:03:45;92935.78;;;27.30;36.13
65376;BME280;51976;47.332;9.404;2023-06-26T09:06:11;92934.34;;;26.96;36.58
65376;BME280;51976;47.332;9.404;2023-06-26T09:08:36;92933.41;;;27.29;36.06
65376;BME280;51976;47.332;9.404;2023-06-26T09:11:02;92940.66;;;27.48;35.71
65376;BME280;51976;47.332;9.404;2023-06-26T09:13:29;92932.63;;;27.94;35.18
65376;BME280;51976;47.332;9.404;2023-06-26T09:15:57;92929.09;;;28.01;35.21
65376;BME280;51976;47.332;9.404;2023-06-26T09:18:23;92929.09;;;28.01;35.21
65376;BME280;51976;47.332;9.404;2023-06-26T09:20:49;92927.78;;;27.77;36.23
65376;BME280;51976;47.332;9.404;2023-06-26T09:23:15;92927.97;;;27.47;36.58
65376;BME280;51976;47.332;9.404;2023-06-26T09:25:41;92928.28;;;27.89;36.12
65376;BME280;51976;47.332;9.404;2023-06-26T09:28:08;92932.69;;;28.05;35.96
65376;BME280;51976;47.332;9.404;2023-06-26T09:30:34;92922.81;;;28.11;35.17
65376;BME280;51976;47.332;9.404;2023-06-26T09:33:18;92940.38;;;28.43;35.54
65376;BME280;51976;47.332;9.404;2023-06-26T09:35:47;92938.19;;;28.01;35.47
65376;BME280;51976;47.332;9.404;2023-06-26T09:38:13;92938.28;;;28.15;35.09
65376;BME280;51976;47.332;9.404;2023-06-26T09:40:40;92930.47;;;28.49;34.81
65376;BME280;51976;47.332;9.404;2023-06-26T09:43:06;92938.72;;;28.28;35.22
65376;BME280;51976;47.332;9.404;2023-06-26T09:45:33;92936.31;;;28.16;35.06
65376;BME280;51976;47.332;9.404;2023-06-26T09:48:02;92938.78;;;28.39;34.51
65376;BME280;51976;47.332;9.404;2023-06-26T09:50:28;92942.50;;;28.96;33.82
65376;BME280;51976;47.332;9.404;2023-06-26T09:52:55;92933.34;;;28.85;33.66
65376;BME280;51976;47.332;9.404;2023-06-26T09:55:20;92936.44;;;28.58;34.06
65376;BME280;51976;47.332;9.404;2023-06-26T09:57:51;92937.16;;;28.27;34.40
65376;BME280;51976;47.332;9.404;2023-06-26T10:00:17;92931.09;;;28.07;34.66
65376;BME280;51976;47.332;9.404;2023-06-26T10:02:43;92936.66;;;28.11;34.45
65376;BME280;51976;47.332;9.404;2023-06-26T10:05:09;92932.25;;;27.99;33.82
65376;BME280;51976;47.332;9.404;2023-06-26T10:07:35;92928.34;;;28.11;33.90
65376;BME280;51976;47.332;9.404;2023-06-26T10:10:02;92932.84;;;28.51;33.50
65376;BME280;51976;47.332;9.404;2023-06-26T10:12:30;92926.13;;;28.48;33.19
65376;BME280;51976;47.332;9.404;2023-06-26T10:14:57;92933.25;;;28.49;32.77
65376;BME280;51976;47.332;9.404;2023-06-26T10:17:25;92934.69;;;28.18;32.93
65376;BME280;51976;47.332;9.404;2023-06-26T10:19:53;92930.09;;;28.54;33.07
65376;BME280;51976;47.332;9.404;2023-06-26T10:22:25;92931.69;;;28.59;33.36
65376;BME280;51976;47.332;9.404;2023-06-26T10:24:55;92925.03;;;28.85;32.68
65376;BME280;51976;47.332;9.404;2023-06-26T10:27:26;92930.59;;;28.88;31.99
65376;BME280;51976;47.332;9.404;2023-06-26T10:30:00;92930.56;;;28.81;33.00
65376;BME280;51976;47.332;9.404;2023-06-26T10:32:27;92934.03;;;28.46;33.01
65376;BME280;51976;47.332;9.404;2023-06-26T10:34:55;92929.53;;;28.06;33.73
65376;BME280;51976;47.332;9.404;2023-06-26T10:37:21;92931.53;;;28.20;33.81
65376;BME280;51976;47.332;9.404;2023-06-26T10:42:36;92938.00;;;28.49;32.77
65376;BME280;51976;47.332;9.404;2023-06-26T10:45:13;92928.47;;;28.46;32.98
65376;BME280;51976;47.332;9.404;2023-06-26T10:47:40;92922.59;;;28.73;33.48
65376;BME280;51976;47.332;9.404;2023-06-26T10:50:27;92920.97;;;28.47;33.25
65376;BME280;51976;47.332;9.404;2023-06-26T10:53:16;92928.94;;;28.62;33.53
65376;BME280;51976;47.332;9.404;2023-06-26T10:55:56;92926.56;;;28.68;32.44
65376;BME280;51976;47.332;9.404;2023-06-26T10:58:34;92924.13;;;28.45;33.47
65376;BME280;51976;47.332;9.404;2023-06-26T11:01:20;92916.69;;;28.81;32.37
65376;BME280;51976;47.332;9.404;2023-06-26T11:04:06;92916.72;;;29.10;32.79
65376;BME280;51976;47.332;9.404;2023-06-26T11:06:33;92913.94;;;28.92;32.80
65376;BME280;51976;47.332;9.404;2023-06-26T11:09:06;92907.59;;;29.16;32.09
65376;BME280;51976;47.332;9.404;2023-06-26T11:11:55;92920.28;;;29.24;32.39
65376;BME280;51976;47.332;9.404;2023-06-26T11:14:24;92910.38;;;29.48;32.43
65376;BME280;51976;47.332;9.404;2023-06-26T11:16:50;92918.69;;;29.27;32.14
65376;BME280;51976;47.332;9.404;2023-06-26T11:19:17;92925.81;;;28.82;32.85
65376;BME280;51976;47.332;9.404;2023-06-26T11:21:43;92921.06;;;28.86;32.68
65376;BME280;51976;47.332;9.404;2023-06-26T11:24:09;92915.13;;;28.94;32.71
65376;BME280;51976;47.332;9.404;2023-06-26T11:26:38;92910.31;;;29.77;31.71
65376;BME280;51976;47.332;9.404;2023-06-26T11:29:04;92916.28;;;29.57;32.73
65376;BME280;51976;47.332;9.404;2023-06-26T11:31:35;92907.88;;;30.07;31.44
65376;BME280;51976;47.332;9.404;2023-06-26T11:34:05;92907.19;;;28.86;33.95
65376;BME280;51976;47.332;9.404;2023-06-26T11:36:32;92915.94;;;28.95;33.91
65376;BME280;51976;47.332;9.404;2023-06-26T11:39:01;92928.59;;;28.82;33.32
65376;BME280;51976;47.332;9.404;2023-06-26T11:41:30;92927.34;;;28.72;33.67
65376;BME280;51976;47.332;9.404;2023-06-26T11:43:55;92919.91;;;29.22;33.24
65376;BME280;51976;47.332;9.404;2023-06-26T11:46:21;92914.34;;;29.51;31.81
65376;BME280;51976;47.332;9.404;2023-06-26T11:48:48;92915.81;;;29.87;31.89
65376;BME280;51976;47.332;9.404;2023-06-26T11:51:15;92915.50;;;29.60;32.54
65376;BME280;51976;47.332;9.404;2023-06-26T11:53:42;92916.66;;;29.77;32.36
65376;BME280;51976;47.332;9.404;2023-06-26T11:56:10;92911.03;;;29.95;32.61
65376;BME280;51976;47.332;9.404;2023-06-26T11:58:36;92919.47;;;29.35;32.75
65376;BME280;51976;47.332;9.404;2023-06-26T12:01:01;92923.41;;;28.77;33.93
65376;BME280;51976;47.332;9.404;2023-06-26T12:03:28;92918.31;;;28.96;34.09
65376;BME280;51976;47.332;9.404;2023-06-26T12:05:54;92910.38;;;29.02;34.16
65376;BME280;51976;47.332;9.404;2023-06-26T12:08:20;92924.19;;;28.74;34.56
65376;BME280;51976;47.332;9.404;2023-06-26T12:10:46;92923.84;;;29.36;33.91
65376;BME280;51976;47.332;9.404;2023-06-26T12:13:14;92909.59;;;29.51;33.54
65376;BME280;51976;47.332;9.404;2023-06-26T12:15:45;92901.13;;;29.90;33.16
65376;BME280;51976;47.332;9.404;2023-06-26T12:18:11;92913.16;;;29.41;34.17
65376;BME280;51976;47.332;9.404;2023-06-26T12:20:40;92930.47;;;28.46;34.25
65376;BME280;51976;47.332;9.404;2023-06-26T12:23:12;92923.72;;;28.40;34.19
65376;BME280;51976;47.332;9.404;2023-06-26T12:25:37;92923.59;;;28.08;35.41
65376;BME280;51976;47.332;9.404;2023-06-26T12:28:03;92918.75;;;27.90;35.95
65376;BME280;51976;47.332;9.404;2023-06-26T12:30:30;92926.53;;;28.50;35.40
65376;BME280;51976;47.332;9.404;2023-06-26T12:32:56;92915.53;;;28.93;35.06
65376;BME280;51976;47.332;9.404;2023-06-26T12:35:21;92923.44;;;29.05;34.53
65376;BME280;51976;47.332;9.404;2023-06-26T12:37:47;92927.00;;;28.81;34.30
65376;BME280;51976;47.332;9.404;2023-06-26T12:40:19;92926.16;;;28.59;34.77
65376;BME280;51976;47.332;9.404;2023-06-26T12:42:47;92935.28;;;28.67;34.57
65376;BME280;51976;47.332;9.404;2023-06-26T12:45:13;92938.44;;;28.76;34.50
65376;BME280;51976;47.332;9.404;2023-06-26T12:47:39;92919.91;;;28.98;34.42
65376;BME280;51976;47.332;9.404;2023-06-26T12:50:06;92921.41;;;28.67;35.42
65376;BME280;51976;47.332;9.404;2023-06-26T12:52:32;92920.16;;;28.39;34.46
65376;BME280;51976;47.332;9.404;2023-06-26T12:54:58;92914.19;;;28.34;35.12
65376;BME280;51976;47.332;9.404;2023-06-26T12:57:23;92906.97;;;28.18;35.06
65376;BME280;51976;47.332;9.404;2023-06-26T12:59:49;92906.72;;;28.55;34.73
65376;BME280;51976;47.332;9.404;2023-06-26T13:02:14;92900.06;;;29.17;33.57